Latest Weather Observations for Murganella Airstrip

IDD60801

Issued at 3:01 pm CST Monday 29 May 2017 (issued every 30 minutes, with the page automatically refreshed every 10 minutes)

About weather observations | Map of weather stations | Latest weather observations for NT | Other Formats
Station Details ID: 014309 Name: MURGANELLA AIRSTRIP Lat: -11.55 Lon: 132.93 Height: 9.5 m
Data from the previous 72 hours. | See also: Recent months at Murganella Airstrip
Date/Time
CST
Temp
°C
App
Temp
°C
Dew
Point
°C
Rel
Hum
%
Delta-T
°C
Wind Press
QNH
hPa
Press
MSL
hPa
Rain since
9am
mm
Dir  Spd
km/h
Gust
km/h
Spd
kts
Gust
kts
29/03:00pm 30.9 32.0 20.5 54 6.9 E 15 30 8 16 1011.5 1011.4 0.0
29/02:30pm 30.6 30.5 19.6 51 7.2 E 19 33 10 18 1011.5 1011.4 0.0
29/02:00pm 30.1 29.3 19.2 52 7.1 E 22 37 12 20 1011.6 1011.5 0.0
29/01:30pm 30.8 30.5 19.5 51 7.4 ESE 20 33 11 18 1011.9 1011.8 0.0
29/01:00pm 31.5 32.5 21.1 54 7.0 ESE 17 28 9 15 1012.0 1011.9 0.0
29/12:30pm 30.6 30.8 20.2 53 6.9 ESE 19 35 10 19 1012.3 1012.2 0.0
29/12:00pm 30.0 29.6 19.4 53 6.9 E 20 41 11 22 1012.9 1012.8 0.0
29/11:30am 29.9 30.2 20.5 57 6.2 E 19 33 10 18 1013.0 1012.9 0.0
29/11:00am 29.1 28.3 20.0 58 6.0 ESE 24 43 13 23 1013.1 1013.0 0.0
29/10:30am 28.7 28.5 19.3 56 6.1 E 19 41 10 22 1013.3 1013.2 0.0
29/10:00am 28.1 28.1 20.1 62 5.2 ESE 20 35 11 19 1013.3 1013.2 0.0
29/09:30am 27.5 27.6 20.3 65 4.7 E 20 35 11 19 1013.4 1013.3 0.0
29/09:00am 27.5 29.1 20.8 67 4.4 ESE 13 26 7 14 1013.2 1013.1 0.0
29/08:30am 26.5 27.8 20.8 71 3.8 ESE 15 24 8 13 1013.1 1013.0 0.0
29/08:00am 25.9 28.0 20.9 74 3.3 ESE 11 20 6 11 1012.6 1012.5 0.0
29/07:30am 24.4 27.1 20.7 80 2.4 ESE 7 17 4 9 1012.5 1012.4 0.0
29/07:00am 23.2 25.9 20.3 84 1.9 ESE 6 11 3 6 1012.1 1012.0 0.0
29/06:30am 23.6 26.3 20.3 82 2.1 ESE 6 11 3 6 1011.9 1011.8 0.0
29/06:00am 23.7 26.4 20.2 81 2.3 ESE 6 9 3 5 1011.6 1011.5 0.0
29/05:30am 24.1 26.9 20.4 80 2.4 SE 6 9 3 5 1011.4 1011.3 0.0
29/05:00am 24.5 26.7 20.4 78 2.7 ESE 9 15 5 8 1011.3 1011.2 0.0
29/04:30am 24.8 27.4 20.5 77 2.8 ESE 7 15 4 8 1011.3 1011.2 0.0
29/04:00am 25.0 27.2 20.5 76 2.9 ESE 9 17 5 9 1011.5 1011.4 0.0
29/03:30am 25.4 27.7 20.6 75 3.1 ESE 9 19 5 10 1011.7 1011.6 0.0
29/03:00am 25.7 28.2 20.3 72 3.5 ESE 7 19 4 10 1011.6 1011.5 0.0
29/02:30am 25.8 27.4 19.9 70 3.8 ESE 11 20 6 11 1011.6 1011.5 0.0
29/02:00am 26.0 27.6 19.9 69 4.0 ESE 11 19 6 10 1011.8 1011.7 0.0
29/01:30am 26.1 27.3 20.0 69 4.0 ESE 13 32 7 17 1012.0 1011.9 0.0
29/01:00am 26.1 27.8 20.2 70 3.8 ESE 11 24 6 13 1012.2 1012.1 0.0
29/12:30am 26.3 28.1 20.4 70 3.9 ESE 11 22 6 12 1012.3 1012.2 0.0
29/12:00am 26.3 27.8 20.6 71 3.7 ESE 13 22 7 12 1012.3 1012.2 0.0
 
Date/Time
CST
Temp
°C
App
Temp
°C
Dew
Point
°C
Rel
Hum
%
Delta-T
°C
Wind Press
QNH
hPa
Press
MSL
hPa
Rain since
9am
mm
Dir  Spd
km/h
Gust
km/h
Spd
kts
Gust
kts
28/11:30pm 25.2 28.5 22.5 85 1.8 ESE 9 17 5 9 1012.3 1012.2 0.0
28/11:00pm 23.3 27.5 21.0 87 1.5 CALM 0 0 0 0 1012.4 1012.3 0.0
28/10:30pm 23.3 27.4 20.8 86 1.6 CALM 0 0 0 0 1012.4 1012.3 0.0
28/10:00pm 23.5 27.6 20.8 85 1.8 CALM 0 0 0 0 1012.2 1012.1 0.0
28/09:30pm 23.8 28.0 20.9 84 1.9 CALM 0 0 0 0 1012.0 1011.9 0.0
28/09:00pm 24.1 28.3 21.0 83 2.0 CALM 0 0 0 0 1011.8 1011.7 0.0
28/08:30pm 24.6 29.0 21.3 82 2.2 CALM 0 0 0 0 1011.4 1011.3 0.0
28/08:00pm 25.0 29.3 21.1 79 2.6 CALM 0 0 0 0 1011.1 1011.0 0.0
28/07:30pm 25.7 29.7 21.4 77 2.9 E 2 2 1 1 1010.9 1010.8 0.0
28/07:00pm 26.3 30.5 21.7 76 3.1 E 2 4 1 2 1010.8 1010.7 0.0
28/06:30pm 27.2 31.0 21.7 72 3.7 E 4 6 2 3 1010.6 1010.5 0.0
28/06:00pm 28.3 31.8 21.8 68 4.4 E 6 11 3 6 1010.4 1010.3 0.0
28/05:30pm 29.3 32.6 21.8 64 5.1 ENE 7 15 4 8 1010.1 1010.0 0.0
28/05:00pm 30.2 33.5 21.8 60 5.7 ENE 7 13 4 7 1009.9 1009.8 0.0
28/04:30pm 30.2 32.5 20.7 56 6.3 ENE 9 17 5 9 1009.8 1009.7 0.0
28/04:00pm 31.0 33.2 21.2 56 6.6 E 11 24 6 13 1009.8 1009.7 0.0
28/03:30pm 31.3 33.5 21.2 55 6.8 E 11 22 6 12 1009.7 1009.6 0.0
28/03:00pm 31.3 31.6 19.6 49 7.7 E 17 24 9 13 1009.9 1009.8 0.0
28/02:30pm 31.3 32.9 19.9 50 7.5 E 11 24 6 13 1010.0 1009.9 0.0
28/02:00pm 31.3 31.8 19.3 49 7.8 ENE 15 32 8 17 1010.3 1010.2 0.0
28/01:30pm 31.7 32.2 18.3 45 8.7 E 13 28 7 15 1010.6 1010.5 0.0
28/01:00pm 31.6 31.5 17.9 44 8.8 ESE 15 32 8 17 1011.1 1011.0 0.0
28/12:30pm 31.3 31.1 17.6 44 8.8 E 15 30 8 16 1011.8 1011.7 0.0
28/12:00pm 31.0 31.3 18.7 48 8.0 ESE 15 32 8 17 1012.1 1012.0 0.0
28/11:30am 31.0 31.1 18.4 47 8.1 ESE 15 28 8 15 1012.4 1012.3 0.0
28/11:00am 30.3 30.8 18.4 49 7.7 ESE 13 22 7 12 1012.6 1012.5 0.0
28/10:30am 29.9 30.5 18.7 51 7.2 ESE 13 28 7 15 1012.5 1012.4 0.0
28/10:00am 28.6 29.2 19.5 58 5.9 ESE 15 28 8 15 1012.5 1012.4 0.0
28/09:30am 28.4 30.0 20.7 63 5.1 E 13 24 7 13 1012.7 1012.6 0.0
28/09:00am 27.7 29.3 20.8 66 4.6 E 13 22 7 12 1012.6 1012.5 0.0
28/08:30am 26.9 29.6 20.7 69 4.1 ESE 7 19 4 10 1012.5 1012.4 0.0
28/08:00am 25.5 28.7 21.2 77 2.8 ESE 6 9 3 5 1012.3 1012.2 0.0
28/07:30am 23.5 26.9 21.0 86 1.6 SE 4 6 2 3 1011.9 1011.8 0.0
28/07:00am 22.6 25.6 20.1 86 1.6 SE 4 6 2 3 1011.7 1011.6 0.0
28/06:30am 22.9 26.2 19.9 83 1.9 SSE 2 6 1 3 1011.5 1011.4 0.0
28/06:00am 23.5 26.2 20.2 82 2.1 ESE 6 7 3 4 1011.2 1011.1 0.0
28/05:30am 24.3 27.2 20.6 80 2.4 ESE 6 15 3 8 1011.0 1010.9 0.0
28/05:00am 24.7 27.1 20.8 79 2.6 ESE 9 17 5 9 1011.2 1011.1 0.0
28/04:30am 24.8 27.6 20.9 79 2.6 ESE 7 15 4 8 1011.1 1011.0 0.0
28/04:00am 24.8 27.5 20.7 78 2.7 ESE 7 13 4 7 1011.3 1011.2 0.0
28/03:30am 24.9 27.7 20.8 78 2.7 ESE 7 13 4 7 1011.5 1011.4 0.0
28/03:00am 24.9 27.2 20.6 77 2.8 ESE 9 17 5 9 1011.8 1011.7 0.0
28/02:30am 24.9 27.1 20.4 76 2.9 ESE 9 15 5 8 1012.1 1012.0 0.0
28/02:00am 25.1 27.3 20.4 75 3.1 ESE 9 19 5 10 1012.4 1012.3 0.0
28/01:30am 25.5 27.7 20.3 73 3.4 ESE 9 19 5 10 1012.5 1012.4 0.0
28/01:00am 25.9 27.8 20.5 72 3.5 ESE 11 22 6 12 1012.6 1012.5 0.0
28/12:30am 26.2 28.1 20.5 71 3.7 E 11 20 6 11 1012.8 1012.7 0.0
28/12:00am 26.0 29.7 22.5 81 2.4 ESE 7 11 4 6 1012.7 1012.6 0.0
 
Date/Time
CST
Temp
°C
App
Temp
°C
Dew
Point
°C
Rel
Hum
%
Delta-T
°C
Wind Press
QNH
hPa
Press
MSL
hPa
Rain since
9am
mm
Dir  Spd
km/h
Gust
km/h
Spd
kts
Gust
kts
27/11:30pm 25.9 30.4 23.0 84 2.0 ESE 4 7 2 4 1012.6 1012.5 0.0
27/11:00pm 26.3 30.5 23.2 83 2.1 E 6 11 3 6 1012.7 1012.6 0.0
27/10:30pm 26.4 30.4 23.1 82 2.2 E 7 13 4 7 1012.6 1012.5 0.0
27/10:00pm 26.1 30.5 23.4 85 1.8 E 6 13 3 7 1012.7 1012.6 0.0
27/09:30pm 24.8 29.3 22.9 89 1.3 E 4 6 2 3 1012.4 1012.3 0.0
27/09:00pm 24.2 28.4 21.7 86 1.7 E 2 4 1 2 1012.3 1012.2 0.0
27/08:30pm 24.2 28.6 21.3 84 1.9 CALM 0 0 0 0 1012.0 1011.9 0.0
27/08:00pm 24.4 28.6 20.9 81 2.3 CALM 0 0 0 0 1011.7 1011.6 0.0
27/07:30pm 24.9 29.0 20.8 78 2.7 CALM 0 2 0 1 1011.3 1011.2 0.0
27/07:00pm 25.8 29.7 21.2 76 3.0 E 2 4 1 2 1010.8 1010.7 0.0
27/06:30pm 26.7 30.4 21.5 73 3.5 ENE 4 11 2 6 1010.6 1010.5 0.0
27/06:00pm 27.7 30.9 21.3 68 4.3 E 6 13 3 7 1010.5 1010.4 0.0
27/05:30pm 28.9 31.4 21.1 62 5.2 ENE 9 20 5 11 1010.4 1010.3 0.0
27/05:00pm 29.2 31.0 21.2 62 5.3 E 13 22 7 12 1010.3 1010.2 0.0
27/04:30pm 29.5 31.3 21.2 61 5.5 ENE 13 26 7 14 1010.4 1010.3 0.0
27/04:00pm 30.1 31.9 21.2 59 6.0 E 13 26 7 14 1010.3 1010.2 0.0
27/03:30pm 29.8 31.3 20.6 57 6.1 E 13 24 7 13 1010.4 1010.3 0.0
27/03:00pm 30.7 32.4 20.9 56 6.5 ENE 13 24 7 13 1010.5 1010.4 0.0
27/02:30pm 30.1 32.2 20.9 57 6.1 E 11 20 6 11 1010.8 1010.7 0.0
27/02:00pm 30.2 32.3 21.0 58 6.1 E 11 24 6 13 1010.9 1010.8 0.0
27/01:30pm 29.8 31.9 20.9 59 5.9 E 11 19 6 10 1011.1 1011.0 0.0
27/01:00pm 28.9 29.3 19.8 58 6.0 E 17 28 9 15 1011.5 1011.4 0.0
27/12:30pm 29.3 29.8 19.3 55 6.5 E 15 26 8 14 1011.8 1011.7 0.0
27/12:00pm 29.6 30.7 19.6 55 6.5 E 13 26 7 14 1012.1 1012.0 0.0
27/11:30am 28.6 28.7 18.4 54 6.5 ESE 15 28 8 15 1012.4 1012.3 0.0
27/11:00am 28.7 29.0 18.8 55 6.4 ESE 15 24 8 13 1012.7 1012.6 0.0
27/10:30am 28.0 27.6 19.0 58 5.8 ESE 19 28 10 15 1012.9 1012.8 0.0
27/10:00am 27.7 28.2 18.4 57 5.9 ESE 13 22 7 12 1013.1 1013.0 0.0
27/09:30am 28.1 29.0 18.5 56 6.1 ESE 11 20 6 11 1013.2 1013.1 0.0
27/09:00am 27.2 28.0 18.2 58 5.7 ESE 11 26 6 14 1013.1 1013.0 0.0
27/08:30am 26.3 27.6 18.4 61 5.0 ESE 9 13 5 7 1013.1 1013.0 0.0
27/08:00am 24.9 26.6 18.4 67 4.1 SE 7 15 4 8 1012.9 1012.8 0.0
27/07:30am 23.5 25.2 18.4 73 3.2 ESE 7 15 4 8 1012.5 1012.4 0.0
27/07:00am 22.9 24.6 18.0 74 3.1 ESE 6 11 3 6 1012.1 1012.0 0.0
27/06:30am 23.4 24.8 17.8 71 3.5 SE 7 13 4 7 1012.1 1012.0 0.0
27/06:00am 23.5 25.3 18.4 73 3.2 ESE 6 9 3 5 1011.9 1011.8 0.0
27/05:30am 23.7 25.6 19.0 75 3.0 ESE 7 15 4 8 1011.8 1011.7 0.0
27/05:00am 24.0 26.1 19.3 75 3.0 ESE 7 17 4 9 1011.7 1011.6 0.0
27/04:30am 24.0 26.2 19.5 76 2.9 ESE 7 13 4 7 1011.6 1011.5 0.0
27/04:00am 24.5 26.6 19.3 73 3.3 ESE 7 15 4 8 1011.7 1011.6 0.0
27/03:30am 25.3 26.5 19.0 68 4.0 ESE 11 24 6 13 1011.7 1011.6 0.0
27/03:00am 25.4 26.6 18.3 65 4.5 ESE 9 19 5 10 1011.9 1011.8 0.0
27/02:30am 25.0 26.0 17.7 64 4.6 ESE 9 19 5 10 1012.2 1012.1 0.0
27/02:00am 24.7 26.8 18.9 70 3.7 ESE 6 13 3 7 1012.5 1012.4 0.0
27/01:30am 24.9 27.7 19.7 73 3.4 SE 4 6 2 3 1012.6 1012.5 0.0
27/01:00am 25.5 28.5 20.1 72 3.5 SE 4 9 2 5 1012.7 1012.6 0.0
27/12:30am 26.1 28.5 20.0 69 4.0 ESE 7 11 4 6 1012.6 1012.5 0.0
27/12:00am 26.3 28.8 20.2 69 4.0 ESE 7 17 4 9 1012.7 1012.6 0.0
 
Date/Time
CST
Temp
°C
App
Temp
°C
Dew
Point
°C
Rel
Hum
%
Delta-T
°C
Wind Press
QNH
hPa
Press
MSL
hPa
Rain since
9am
mm
Dir  Spd
km/h
Gust
km/h
Spd
kts
Gust
kts
26/11:30pm 26.7 29.3 20.5 69 4.1 ESE 7 15 4 8 1012.8 1012.7 0.0
26/11:00pm 27.0 29.8 20.8 69 4.1 E 7 13 4 7 1012.9 1012.8 0.0
26/10:30pm 26.6 29.8 21.6 74 3.3 E 7 17 4 9 1012.8 1012.7 0.0
26/10:00pm 26.4 29.4 22.0 77 2.9 E 9 20 5 11 1012.6 1012.5 0.0
26/09:30pm 26.4 30.3 22.5 79 2.6 ENE 6 9 3 5 1012.6 1012.5 0.0
26/09:00pm 25.7 29.5 22.4 82 2.2 ENE 6 11 3 6 1012.6 1012.5 0.0
26/08:30pm 25.1 29.0 21.8 82 2.2 ENE 4 6 2 3 1012.5 1012.4 0.0
26/08:00pm 25.4 29.4 21.3 78 2.7 ENE 2 4 1 2 1012.2 1012.1 0.0
26/07:30pm 25.9 29.7 21.6 77 2.9 E 4 7 2 4 1011.8 1011.7 0.0
26/07:00pm 26.1 29.8 21.5 76 3.1 E 4 7 2 4 1011.5 1011.4 0.0
26/06:30pm 26.6 30.0 21.6 74 3.3 ENE 6 13 3 7 1011.2 1011.1 0.0
26/06:00pm 27.4 30.7 21.4 70 4.0 ENE 6 13 3 7 1010.9 1010.8 0.0
26/05:30pm 28.0 30.3 21.3 67 4.5 E 11 24 6 13 1010.5 1010.4 0.0
26/05:00pm 28.7 30.5 21.2 64 5.0 ENE 13 32 7 17 1010.2 1010.1 0.0
26/04:30pm 29.1 30.4 20.8 61 5.5 ENE 15 24 8 13 1010.2 1010.1 0.0
26/04:00pm 29.5 31.6 20.9 60 5.7 E 11 26 6 14 1010.2 1010.1 0.0
26/03:30pm 29.5 31.0 20.6 58 5.9 ENE 13 26 7 14 1010.3 1010.2 0.0

Other Formats:

Comma delimited format used in spreadsheet applications
http://www.bom.gov.au/fwo/IDD60801/IDD60801.94109.axf

JavaScript Object Notation format (JSON) in row-major order
http://www.bom.gov.au/fwo/IDD60801/IDD60801.94109.json